Edneyville, NC (28727)

1:56 PM EDT on October 31, 2014 (GMT -0400)
North Ridge Road | Change Station
CLOSE
Current Station
Personal Weather Station
Location: Hendersonville, NC
Elevation: 2218 ft
Nearby Weather Stations
Active Advisory: Freeze Warning

Elev 2218 ft 35.38 °N, 82.35 °W | Updated 39 seconds ago

Clear
Clear
54.4 °F
Feels Like 54.4 °F
N
2.0
Wind Variable Wind from South
Gusts 4.0 mph

Today
High -- | Low -- °F
--% Chance of Precip.
Yesterday
High -- | Low -- °F
Precip. -- in
7:49 AM 6:35 PM
First Quarter, 57% visible
Pressure 29.87 in
Visibility 10.0 miles
Clouds Mostly Cloudy 11000 ft
Dew Point 43 °F
Humidity 65%
Rainfall 0.00 in
Snow Depth Not available.
UV 3 out of 12
Pollen 1.30 out of 12
Air Quality Not available.
Flu Activity Not available.
METAR KAVL 311654Z 00000KT 10SM BKN110 13/03 A2989 RMK AO2 SLP114 T01280028

More Conditions Fewer Conditions

Pressure 29.87 in
Visibility 10.0 miles
Clouds Mostly Cloudy 11000 ft
Dew Point 43 °F
Humidity 65%
Rainfall 0.00 in
Snow Depth Not available.
UV 3 out of 12
Pollen 1.30 out of 12
Air Quality Not available.
Flu Activity Not available.
METAR KAVL 311654Z 00000KT 10SM BKN110 13/03 A2989 RMK AO2 SLP114 T01280028

More Conditions Fewer Conditions

10-Day Weather Forecast

Almanac

Astronomy

Oct. 31, 2014 Rise Set
Actual Time
Civil Twilight
Nautical Twilight
Astronomical Twilight
Moon
Length of Visible Light
Length of Day
Tomorrow will be .
, % of the Moon is Illuminated

Today's Extremes

State Highs State Lows

Community

WunderPhotos

Upload Photos

1,766,673 photos uploaded!

WunderBlogs® & News

Nearby

Air Quality

  Air Quality AQ Index Pollutant
Not available.

Snow Depth

Station Depth Elevation

Earthquake Activity

City Distance Mag. Time & Date
Minimum magnitude displayed is 2.5.

Coastal Water Temperatures

Place Temperature

Nearby Weather Stations